Time,TemperatureF,DewpointF,PressureIn,WindDirection,WindDirectionDegrees,WindSpeedMPH,WindSpeedGustMPH,Humidity,HourlyPrecipIn,Conditions,Clouds,dailyrainin,SoftwareType,DateUTC
2013-02-09 00:03:00,40.7,29.9,29.95,NNW,339,2.0,2.0,65,0.00,,,0.00,WeatherCatV1.10B1784,2013-02-09 08:03:00,
2013-02-09 00:08:00,40.6,29.8,29.95,NNW,333,1.0,5.0,65,0.00,,,0.00,WeatherCatV1.10B1784,2013-02-09 08:08:00,
2013-02-09 00:13:00,40.6,30.1,29.95,NNW,337,3.0,3.0,66,0.00,,,0.00,WeatherCatV1.10B1784,2013-02-09 08:13:00,
2013-02-09 00:18:00,40.4,30.0,29.95,North,353,2.0,9.0,66,0.00,,,0.00,WeatherCatV1.10B1784,2013-02-09 08:18:00,
2013-02-09 00:23:00,40.3,29.9,29.95,North,356,1.0,2.0,66,0.00,,,0.00,WeatherCatV1.10B1784,2013-02-09 08:23:00,
2013-02-09 00:28:00,40.2,29.4,29.95,NNW,342,3.0,5.0,65,0.00,,,0.00,WeatherCatV1.10B1784,2013-02-09 08:28:00,
2013-02-09 00:33:00,40.3,29.5,29.94,NNW,339,4.0,4.0,65,0.00,,,0.00,WeatherCatV1.10B1784,2013-02-09 08:33:00,
2013-02-09 00:38:00,40.3,29.1,29.94,NNW,346,2.0,6.0,64,0.00,,,0.00,WeatherCatV1.10B1784,2013-02-09 08:38:00,
2013-02-09 00:43:00,40.3,29.5,29.94,North,0,1.0,4.0,65,0.00,,,0.00,WeatherCatV1.10B1784,2013-02-09 08:43:00,
2013-02-09 00:48:00,40.3,28.7,29.94,NNW,329,1.0,9.0,63,0.00,,,0.00,WeatherCatV1.10B1784,2013-02-09 08:48:00,
2013-02-09 00:53:00,40.3,28.3,29.94,NNW,343,5.0,5.0,62,0.00,,,0.00,WeatherCatV1.10B1784,2013-02-09 08:53:00,
2013-02-09 00:58:00,40.2,28.2,29.94,NW,321,5.0,7.0,62,0.00,,,0.00,WeatherCatV1.10B1784,2013-02-09 08:58:00,
2013-02-09 01:03:00,40.2,28.2,29.94,NW,323,5.0,5.0,62,0.00,,,0.00,WeatherCatV1.10B1784,2013-02-09 09:03:00,
2013-02-09 01:08:00,40.1,27.7,29.94,North,4,2.0,3.0,61,0.00,,,0.00,WeatherCatV1.10B1784,2013-02-09 09:08:00,
2013-02-09 01:13:00,40.1,27.7,29.94,NNW,336,3.0,5.0,61,0.00,,,0.00,WeatherCatV1.10B1784,2013-02-09 09:13:00,
2013-02-09 01:18:00,40.1,28.5,29.95,NNW,338,2.0,6.0,63,0.00,,,0.00,WeatherCatV1.10B1784,2013-02-09 09:18:00,
2013-02-09 01:23:00,40.0,28.4,29.95,NW,324,4.0,5.0,63,0.00,,,0.00,WeatherCatV1.10B1784,2013-02-09 09:23:00,
2013-02-09 01:28:00,39.8,27.9,29.95,NW,326,3.0,4.0,62,0.00,,,0.00,WeatherCatV1.10B1784,2013-02-09 09:28:00,
2013-02-09 01:33:00,39.7,28.2,29.95,NNW,344,2.0,4.0,63,0.00,,,0.00,WeatherCatV1.10B1784,2013-02-09 09:33:00,
2013-02-09 01:38:00,39.7,28.2,29.95,NNW,327,2.0,5.0,63,0.00,,,0.00,WeatherCatV1.10B1784,2013-02-09 09:38:00,
2013-02-09 01:43:00,39.6,28.1,29.95,NNW,348,3.0,5.0,63,0.00,,,0.00,WeatherCatV1.10B1784,2013-02-09 09:43:00,
2013-02-09 01:48:00,39.5,28.0,29.95,NNW,337,5.0,5.0,63,0.00,,,0.00,WeatherCatV1.10B1784,2013-02-09 09:48:00,
2013-02-09 01:53:00,39.4,28.2,29.95,NNW,344,1.0,4.0,64,0.00,,,0.00,WeatherCatV1.10B1784,2013-02-09 09:53:00,
2013-02-09 01:58:00,39.3,27.8,29.95,NNW,332,5.0,5.0,63,0.00,,,0.00,WeatherCatV1.10B1784,2013-02-09 09:58:00,
2013-02-09 02:03:00,39.3,27.8,29.95,NNW,343,1.0,5.0,63,0.00,,,0.00,WeatherCatV1.10B1784,2013-02-09 10:03:00,
2013-02-09 02:08:00,39.3,28.2,29.95,NNW,337,4.0,4.0,64,0.00,,,0.00,WeatherCatV1.10B1784,2013-02-09 10:08:00,
2013-02-09 02:13:00,39.2,27.7,29.95,NNW,342,1.0,4.0,63,0.00,,,0.00,WeatherCatV1.10B1784,2013-02-09 10:13:00,
2013-02-09 02:18:00,39.1,27.2,29.95,NNW,339,1.0,7.0,62,0.00,,,0.00,WeatherCatV1.10B1784,2013-02-09 10:18:00,
2013-02-09 02:23:00,39.1,26.8,29.95,NW,324,4.0,4.0,61,0.00,,,0.00,WeatherCatV1.10B1784,2013-02-09 10:23:00,
2013-02-09 02:28:00,39.1,26.8,29.95,NNW,330,4.0,5.0,61,0.00,,,0.00,WeatherCatV1.10B1784,2013-02-09 10:28:00,
2013-02-09 02:33:00,39.1,26.4,29.95,NNW,335,3.0,7.0,60,0.00,,,0.00,WeatherCatV1.10B1784,2013-02-09 10:33:00,
2013-02-09 02:38:00,39.2,26.9,29.95,NNW,331,3.0,5.0,61,0.00,,,0.00,WeatherCatV1.10B1784,2013-02-09 10:38:00,
2013-02-09 02:43:00,39.2,26.9,29.95,NNW,340,2.0,4.0,61,0.00,,,0.00,WeatherCatV1.10B1784,2013-02-09 10:43:00,
2013-02-09 02:48:00,39.1,26.8,29.95,NNW,339,2.0,5.0,61,0.00,,,0.00,WeatherCatV1.10B1784,2013-02-09 10:48:00,
2013-02-09 02:53:00,38.9,26.6,29.95,NNW,343,6.0,7.0,61,0.00,,,0.00,WeatherCatV1.10B1784,2013-02-09 10:53:00,
2013-02-09 02:58:00,38.9,26.6,29.95,NNW,345,3.0,7.0,61,0.00,,,0.00,WeatherCatV1.10B1784,2013-02-09 10:58:00,
2013-02-09 03:03:00,38.9,26.2,29.95,NNW,345,3.0,6.0,60,0.00,,,0.00,WeatherCatV1.10B1784,2013-02-09 11:03:00,
2013-02-09 03:08:00,38.9,26.2,29.95,NNW,337,3.0,4.0,60,0.00,,,0.00,WeatherCatV1.10B1784,2013-02-09 11:08:00,
2013-02-09 03:13:00,38.9,25.8,29.95,NNE,29,0.0,6.0,59,0.00,,,0.00,WeatherCatV1.10B1784,2013-02-09 11:13:00,
2013-02-09 03:18:00,38.9,25.4,29.95,ENE,59,0.0,4.0,58,0.00,,,0.00,WeatherCatV1.10B1784,2013-02-09 11:18:00,
2013-02-09 03:23:00,38.9,25.4,29.95,NNW,338,2.0,6.0,58,0.00,,,0.00,WeatherCatV1.10B1784,2013-02-09 11:23:00,
2013-02-09 03:28:00,39.1,25.6,29.95,NNW,337,4.0,6.0,58,0.00,,,0.00,WeatherCatV1.10B1784,2013-02-09 11:28:00,
2013-02-09 03:33:00,39.1,25.6,29.95,North,353,2.0,4.0,58,0.00,,,0.00,WeatherCatV1.10B1784,2013-02-09 11:33:00,
2013-02-09 03:38:00,38.9,25.8,29.95,NNW,330,3.0,5.0,59,0.00,,,0.00,WeatherCatV1.10B1784,2013-02-09 11:38:00,
2013-02-09 03:43:00,38.9,26.2,29.95,NNW,329,1.0,3.0,60,0.00,,,0.00,WeatherCatV1.10B1784,2013-02-09 11:43:00,
2013-02-09 03:48:00,38.7,27.2,29.95,NNW,333,1.0,4.0,63,0.00,,,0.00,WeatherCatV1.10B1784,2013-02-09 11:48:00,
2013-02-09 03:53:00,38.5,27.0,29.95,NNW,332,0.0,3.0,63,0.00,,,0.00,WeatherCatV1.10B1784,2013-02-09 11:53:00,
2013-02-09 03:58:00,38.4,27.3,29.95,North,2,1.0,5.0,64,0.00,,,0.00,WeatherCatV1.10B1784,2013-02-09 11:58:00,
2013-02-09 04:03:00,38.4,27.3,29.95,NNW,337,0.0,3.0,64,0.00,,,0.00,WeatherCatV1.10B1784,2013-02-09 12:03:00,
2013-02-09 04:08:00,38.2,27.5,29.95,NNW,335,3.0,5.0,65,0.00,,,0.00,WeatherCatV1.10B1784,2013-02-09 12:08:00,
2013-02-09 04:13:00,38.3,26.8,29.95,NNW,341,3.0,6.0,63,0.00,,,0.00,WeatherCatV1.10B1784,2013-02-09 12:13:00,
2013-02-09 04:18:00,38.3,27.2,29.96,NNW,334,1.0,4.0,64,0.00,,,0.00,WeatherCatV1.10B1784,2013-02-09 12:18:00,
2013-02-09 04:23:00,38.3,27.6,29.96,NNW,344,1.0,1.0,65,0.00,,,0.00,WeatherCatV1.10B1784,2013-02-09 12:23:00,
2013-02-09 04:28:00,38.2,27.1,29.96,North,8,1.0,1.0,64,0.00,,,0.00,WeatherCatV1.10B1784,2013-02-09 12:28:00,
2013-02-09 04:33:00,38.2,27.5,29.96,NNW,341,0.0,1.0,65,0.00,,,0.00,WeatherCatV1.10B1784,2013-02-09 12:33:00,
2013-02-09 04:38:00,38.1,27.0,29.96,NNW,340,0.0,3.0,64,0.00,,,0.00,WeatherCatV1.10B1784,2013-02-09 12:38:00,
2013-02-09 04:43:00,38.1,27.0,29.96,NNW,337,0.0,3.0,64,0.00,,,0.00,WeatherCatV1.10B1784,2013-02-09 12:43:00,
2013-02-09 04:48:00,38.0,26.9,29.96,NNW,341,1.0,2.0,64,0.00,,,0.00,WeatherCatV1.10B1784,2013-02-09 12:48:00,
2013-02-09 04:53:00,38.0,26.5,29.96,North,350,1.0,4.0,63,0.00,,,0.00,WeatherCatV1.10B1784,2013-02-09 12:53:00,
2013-02-09 04:58:00,38.0,26.5,29.96,NNW,334,1.0,3.0,63,0.00,,,0.00,WeatherCatV1.10B1784,2013-02-09 12:58:00,
2013-02-09 05:03:00,38.1,26.6,29.96,North,350,1.0,4.0,63,0.00,,,0.00,WeatherCatV1.10B1784,2013-02-09 13:03:00,
2013-02-09 05:08:00,38.1,27.0,29.96,WNW,291,4.0,5.0,64,0.00,,,0.00,WeatherCatV1.10B1784,2013-02-09 13:08:00,
2013-02-09 05:13:00,38.1,27.0,29.96,NNW,336,2.0,4.0,64,0.00,,,0.00,WeatherCatV1.10B1784,2013-02-09 13:13:00,
2013-02-09 05:18:00,38.1,26.2,29.96,NNW,335,2.0,5.0,62,0.00,,,0.00,WeatherCatV1.10B1784,2013-02-09 13:18:00,
2013-02-09 05:23:00,38.3,26.4,29.96,NNW,341,1.0,4.0,62,0.00,,,0.00,WeatherCatV1.10B1784,2013-02-09 13:23:00,
2013-02-09 05:28:00,38.3,26.4,29.96,NW,323,4.0,4.0,62,0.00,,,0.00,WeatherCatV1.10B1784,2013-02-09 13:28:00,
2013-02-09 05:33:00,38.3,26.4,29.96,NW,320,3.0,5.0,62,0.00,,,0.00,WeatherCatV1.10B1784,2013-02-09 13:33:00,
2013-02-09 05:38:00,38.3,26.0,29.96,NNW,347,0.0,8.0,61,0.00,,,0.00,WeatherCatV1.10B1784,2013-02-09 13:38:00,
2013-02-09 05:43:00,38.4,25.7,29.96,North,0,0.0,2.0,60,0.00,,,0.00,WeatherCatV1.10B1784,2013-02-09 13:43:00,
2013-02-09 05:48:00,38.4,25.7,29.96,North,358,1.0,6.0,60,0.00,,,0.00,WeatherCatV1.10B1784,2013-02-09 13:48:00,
2013-02-09 05:53:00,38.4,25.3,29.96,NNW,341,1.0,8.0,59,0.00,,,0.00,WeatherCatV1.10B1784,2013-02-09 13:53:00,
2013-02-09 05:58:00,38.4,24.9,29.96,NW,323,3.0,6.0,58,0.00,,,0.00,WeatherCatV1.10B1784,2013-02-09 13:58:00,
2013-02-09 06:03:00,38.5,24.6,29.96,NNW,337,5.0,8.0,57,0.00,,,0.00,WeatherCatV1.10B1784,2013-02-09 14:03:00,
2013-02-09 06:08:00,38.5,24.6,29.96,NNW,334,3.0,4.0,57,0.00,,,0.00,WeatherCatV1.10B1784,2013-02-09 14:08:00,
2013-02-09 06:13:00,38.4,24.5,29.96,NNW,345,2.0,5.0,57,0.00,,,0.00,WeatherCatV1.10B1784,2013-02-09 14:13:00,
2013-02-09 06:18:00,38.4,24.5,29.96,North,355,1.0,3.0,57,0.00,,,0.00,WeatherCatV1.10B1784,2013-02-09 14:18:00,
2013-02-09 06:23:00,38.5,24.6,29.96,NNW,343,2.0,3.0,57,0.00,,,0.00,WeatherCatV1.10B1784,2013-02-09 14:23:00,
2013-02-09 06:28:00,38.6,24.3,29.96,North,357,2.0,5.0,56,0.00,,,0.00,WeatherCatV1.10B1784,2013-02-09 14:28:00,
2013-02-09 06:33:00,38.6,24.3,29.96,NNW,341,0.0,1.0,56,0.00,,,0.00,WeatherCatV1.10B1784,2013-02-09 14:33:00,
2013-02-09 06:38:00,38.7,23.9,29.96,NNW,334,3.0,3.0,55,0.00,,,0.00,WeatherCatV1.10B1784,2013-02-09 14:38:00,
2013-02-09 06:43:00,38.7,23.5,29.96,NNW,335,4.0,4.0,54,0.00,,,0.00,WeatherCatV1.10B1784,2013-02-09 14:43:00,
2013-02-09 06:48:00,38.8,23.6,29.96,NNW,339,1.0,5.0,54,0.00,,,0.00,WeatherCatV1.10B1784,2013-02-09 14:48:00,
2013-02-09 06:53:00,38.9,23.2,29.96,NNW,336,3.0,7.0,53,0.00,,,0.00,WeatherCatV1.10B1784,2013-02-09 14:53:00,
2013-02-09 06:58:00,39.0,23.3,29.96,North,350,2.0,8.0,53,0.00,,,0.00,WeatherCatV1.10B1784,2013-02-09 14:58:00,
2013-02-09 07:03:00,39.0,23.3,29.98,NNW,329,7.0,7.0,53,0.00,,,0.00,WeatherCatV1.10B1784,2013-02-09 15:03:00,
2013-02-09 07:08:00,38.9,23.2,29.98,NNW,337,2.0,5.0,53,0.00,,,0.00,WeatherCatV1.10B1784,2013-02-09 15:08:00,
2013-02-09 07:13:00,38.8,23.2,29.98,NNW,339,2.0,5.0,53,0.00,,,0.00,WeatherCatV1.10B1784,2013-02-09 15:13:00,
2013-02-09 07:18:00,38.9,23.7,29.98,North,7,2.0,5.0,54,0.00,,,0.00,WeatherCatV1.10B1784,2013-02-09 15:18:00,
2013-02-09 07:23:00,38.9,23.7,29.98,NNW,335,4.0,4.0,54,0.00,,,0.00,WeatherCatV1.10B1784,2013-02-09 15:23:00,
2013-02-09 07:28:00,39.0,23.8,29.98,NNW,334,1.0,5.0,54,0.00,,,0.00,WeatherCatV1.10B1784,2013-02-09 15:28:00,
2013-02-09 07:33:00,39.3,23.6,29.99,NNW,336,2.0,3.0,53,0.00,,,0.00,WeatherCatV1.10B1784,2013-02-09 15:33:00,
2013-02-09 07:38:00,39.4,23.7,29.99,NNE,13,1.0,8.0,53,0.00,,,0.00,WeatherCatV1.10B1784,2013-02-09 15:38:00,
2013-02-09 07:43:00,39.7,24.0,29.99,NNW,341,1.0,4.0,53,0.00,,,0.00,WeatherCatV1.10B1784,2013-02-09 15:43:00,
2013-02-09 07:48:00,39.8,24.1,29.99,NNW,337,0.0,3.0,53,0.00,,,0.00,WeatherCatV1.10B1784,2013-02-09 15:48:00,
2013-02-09 07:53:00,40.0,23.8,29.99,NE,44,0.0,6.0,52,0.00,,,0.00,WeatherCatV1.10B1784,2013-02-09 15:53:00,
2013-02-09 07:58:00,40.2,23.5,29.99,NNW,339,3.0,5.0,51,0.00,,,0.00,WeatherCatV1.10B1784,2013-02-09 15:58:00,
2013-02-09 08:03:00,40.5,23.8,29.99,NNE,25,0.0,4.0,51,0.00,,,0.00,WeatherCatV1.10B1784,2013-02-09 16:03:00,
2013-02-09 08:08:00,40.6,23.9,29.99,NNW,341,0.0,6.0,51,0.00,,,0.00,WeatherCatV1.10B1784,2013-02-09 16:08:00,
2013-02-09 08:13:00,40.7,24.0,29.99,NNW,334,2.0,2.0,51,0.00,,,0.00,WeatherCatV1.10B1784,2013-02-09 16:13:00,
2013-02-09 08:18:00,40.9,23.7,29.99,NNW,336,0.0,2.0,50,0.00,,,0.00,WeatherCatV1.10B1784,2013-02-09 16:18:00,
2013-02-09 08:23:00,41.1,23.9,29.99,NNW,348,0.0,1.0,50,0.00,,,0.00,WeatherCatV1.10B1784,2013-02-09 16:23:00,
2013-02-09 08:28:00,41.3,24.1,29.99,ENE,59,0.0,1.0,50,0.00,,,0.00,WeatherCatV1.10B1784,2013-02-09 16:28:00,
2013-02-09 08:33:00,41.5,23.8,30.00,North,8,0.0,3.0,49,0.00,,,0.00,WeatherCatV1.10B1784,2013-02-09 16:33:00,
2013-02-09 08:38:00,41.6,23.9,30.00,NNW,340,1.0,2.0,49,0.00,,,0.00,WeatherCatV1.10B1784,2013-02-09 16:38:00,
2013-02-09 08:43:00,41.8,24.5,30.00,NNE,17,0.0,1.0,50,0.00,,,0.00,WeatherCatV1.10B1784,2013-02-09 16:43:00,
2013-02-09 08:48:00,42.0,24.2,30.00,NW,324,5.0,7.0,49,0.00,,,0.00,WeatherCatV1.10B1784,2013-02-09 16:48:00,
2013-02-09 08:53:00,42.3,26.4,30.00,North,354,1.0,1.0,53,0.00,,,0.00,WeatherCatV1.10B1784,2013-02-09 16:53:00,
2013-02-09 08:58:00,42.9,24.1,30.00,NNW,343,1.0,3.0,47,0.00,,,0.00,WeatherCatV1.10B1784,2013-02-09 16:58:00,
2013-02-09 09:03:00,43.5,25.1,30.01,East,85,0.0,1.0,48,0.00,,,0.00,WeatherCatV1.10B1784,2013-02-09 17:03:00,
2013-02-09 09:08:00,44.2,24.7,30.01,North,358,1.0,2.0,46,0.00,,,0.00,WeatherCatV1.10B1784,2013-02-09 17:08:00,
2013-02-09 09:13:00,44.5,25.0,30.01,North,358,2.0,2.0,46,0.00,,,0.00,WeatherCatV1.10B1784,2013-02-09 17:13:00,
2013-02-09 09:18:00,45.0,28.0,30.01,ESE,115,0.0,0.0,51,0.00,,,0.00,WeatherCatV1.10B1784,2013-02-09 17:18:00,
2013-02-09 09:23:00,45.8,26.7,30.01,NNW,335,2.0,2.0,47,0.00,,,0.00,WeatherCatV1.10B1784,2013-02-09 17:23:00,
2013-02-09 09:28:00,46.2,25.5,30.01,NNW,339,2.0,2.0,44,0.00,,,0.00,WeatherCatV1.10B1784,2013-02-09 17:28:00,
2013-02-09 09:33:00,46.7,27.0,30.01,NNW,339,0.0,1.0,46,0.00,,,0.00,WeatherCatV1.10B1784,2013-02-09 17:33:00,
2013-02-09 09:38:00,46.8,24.9,30.01,NNW,333,4.0,4.0,42,0.00,,,0.00,WeatherCatV1.10B1784,2013-02-09 17:38:00,
2013-02-09 09:43:00,46.3,25.0,30.01,North,356,2.0,4.0,43,0.00,,,0.00,WeatherCatV1.10B1784,2013-02-09 17:43:00,
2013-02-09 09:48:00,45.8,24.6,30.01,NNW,331,2.0,5.0,43,0.00,,,0.00,WeatherCatV1.10B1784,2013-02-09 17:48:00,
2013-02-09 09:53:00,46.1,23.7,30.01,SE,127,0.0,2.0,41,0.00,,,0.00,WeatherCatV1.10B1784,2013-02-09 17:53:00,
2013-02-09 09:58:00,46.6,24.8,30.01,NNE,27,0.0,1.0,42,0.00,,,0.00,WeatherCatV1.10B1784,2013-02-09 17:58:00,
2013-02-09 10:03:00,46.4,24.0,30.01,NNW,328,0.0,5.0,41,0.00,,,0.00,WeatherCatV1.10B1784,2013-02-09 18:03:00,
2013-02-09 10:08:00,47.0,26.2,30.01,NNW,331,0.0,3.0,44,0.00,,,0.00,WeatherCatV1.10B1784,2013-02-09 18:08:00,
2013-02-09 10:13:00,47.2,24.1,30.01,NNW,338,2.0,7.0,40,0.00,,,0.00,WeatherCatV1.10B1784,2013-02-09 18:13:00,
2013-02-09 10:18:00,47.4,24.9,30.01,SE,132,1.0,2.0,41,0.00,,,0.00,WeatherCatV1.10B1784,2013-02-09 18:18:00,
2013-02-09 10:23:00,47.9,25.9,30.01,ENE,64,0.0,4.0,42,0.00,,,0.00,WeatherCatV1.10B1784,2013-02-09 18:23:00,
2013-02-09 10:28:00,47.7,24.0,30.01,NNW,335,3.0,3.0,39,0.00,,,0.00,WeatherCatV1.10B1784,2013-02-09 18:28:00,
2013-02-09 10:33:00,47.5,23.2,30.02,NNW,334,2.0,3.0,38,0.00,,,0.00,WeatherCatV1.10B1784,2013-02-09 18:33:00,
2013-02-09 10:38:00,47.3,24.2,30.02,North,352,1.0,4.0,40,0.00,,,0.00,WeatherCatV1.10B1784,2013-02-09 18:38:00,
2013-02-09 10:43:00,47.4,24.3,30.02,North,2,1.0,3.0,40,0.00,,,0.00,WeatherCatV1.10B1784,2013-02-09 18:43:00,
2013-02-09 10:48:00,47.6,25.7,30.02,North,352,1.0,2.0,42,0.00,,,0.00,WeatherCatV1.10B1784,2013-02-09 18:48:00,
2013-02-09 10:53:00,47.6,23.9,30.02,NNW,333,0.0,2.0,39,0.00,,,0.00,WeatherCatV1.10B1784,2013-02-09 18:53:00,
2013-02-09 10:58:00,47.7,24.6,30.02,East,86,0.0,4.0,40,0.00,,,0.00,WeatherCatV1.10B1784,2013-02-09 18:58:00,
2013-02-09 11:03:00,47.9,22.9,30.02,NNW,337,1.0,3.0,37,0.00,,,0.00,WeatherCatV1.10B1784,2013-02-09 19:03:00,
2013-02-09 11:08:00,47.8,24.1,30.02,North,359,1.0,4.0,39,0.00,,,0.00,WeatherCatV1.10B1784,2013-02-09 19:08:00,
2013-02-09 11:13:00,48.0,24.2,30.02,NNW,327,4.0,4.0,39,0.00,,,0.00,WeatherCatV1.10B1784,2013-02-09 19:13:00,
2013-02-09 11:18:00,47.8,25.3,30.02,NNW,341,2.0,8.0,41,0.00,,,0.00,WeatherCatV1.10B1784,2013-02-09 19:18:00,
2013-02-09 11:23:00,47.8,24.1,30.02,North,351,2.0,4.0,39,0.00,,,0.00,WeatherCatV1.10B1784,2013-02-09 19:23:00,
2013-02-09 11:28:00,47.6,25.7,30.02,NNW,345,2.0,4.0,42,0.00,,,0.00,WeatherCatV1.10B1784,2013-02-09 19:28:00,
2013-02-09 11:33:00,47.9,25.3,30.02,NNW,329,1.0,3.0,41,0.00,,,0.00,WeatherCatV1.10B1784,2013-02-09 19:33:00,
2013-02-09 11:38:00,48.6,26.0,30.02,North,5,3.0,4.0,41,0.00,,,0.00,WeatherCatV1.10B1784,2013-02-09 19:38:00,
2013-02-09 11:43:00,49.0,25.7,30.02,East,88,0.0,1.0,40,0.00,,,0.00,WeatherCatV1.10B1784,2013-02-09 19:43:00,
2013-02-09 11:48:00,49.4,23.6,30.02,North,350,1.0,6.0,36,0.00,,,0.00,WeatherCatV1.10B1784,2013-02-09 19:48:00,
2013-02-09 11:53:00,49.3,27.2,30.02,East,96,0.0,0.0,42,0.00,,,0.00,WeatherCatV1.10B1784,2013-02-09 19:53:00,
2013-02-09 11:58:00,50.2,28.0,30.02,East,98,0.0,0.0,42,0.00,,,0.00,WeatherCatV1.10B1784,2013-02-09 19:58:00,
2013-02-09 12:03:00,50.5,28.3,30.02,NNW,347,1.0,1.0,42,0.00,,,0.00,WeatherCatV1.10B1784,2013-02-09 20:03:00,
2013-02-09 12:08:00,50.8,24.8,30.02,SE,145,0.0,2.0,36,0.00,,,0.00,WeatherCatV1.10B1784,2013-02-09 20:08:00,
2013-02-09 12:13:00,51.1,25.1,30.02,NNE,16,0.0,4.0,36,0.00,,,0.00,WeatherCatV1.10B1784,2013-02-09 20:13:00,
2013-02-09 12:18:00,50.9,22.8,30.01,NNW,339,1.0,3.0,33,0.00,,,0.00,WeatherCatV1.10B1784,2013-02-09 20:18:00,
2013-02-09 12:23:00,50.3,24.4,30.01,SSE,162,2.0,3.0,36,0.00,,,0.00,WeatherCatV1.10B1784,2013-02-09 20:23:00,
2013-02-09 12:28:00,50.6,25.9,30.01,NNW,339,0.0,1.0,38,0.00,,,0.00,WeatherCatV1.10B1784,2013-02-09 20:28:00,
2013-02-09 12:33:00,50.5,25.2,30.01,ESE,117,1.0,1.0,37,0.00,,,0.00,WeatherCatV1.10B1784,2013-02-09 20:33:00,
2013-02-09 12:38:00,51.0,32.0,30.01,South,174,0.0,1.0,48,0.00,,,0.00,WeatherCatV1.10B1784,2013-02-09 20:38:00,
2013-02-09 12:43:00,51.5,33.0,30.01,North,0,1.0,1.0,49,0.00,,,0.00,WeatherCatV1.10B1784,2013-02-09 20:43:00,
2013-02-09 12:48:00,51.8,31.1,30.00,SSE,150,0.0,3.0,45,0.00,,,0.00,WeatherCatV1.10B1784,2013-02-09 20:48:00,
2013-02-09 12:53:00,51.6,31.5,30.00,North,356,0.0,3.0,46,0.00,,,0.00,WeatherCatV1.10B1784,2013-02-09 20:53:00,
2013-02-09 12:58:00,51.1,32.6,30.00,South,173,0.0,1.0,49,0.00,,,0.00,WeatherCatV1.10B1784,2013-02-09 20:58:00,
2013-02-09 13:03:00,50.8,32.3,30.00,North,0,0.0,1.0,49,0.00,,,0.00,WeatherCatV1.10B1784,2013-02-09 21:03:00,
2013-02-09 13:08:00,50.8,33.8,30.00,ESE,123,0.0,2.0,52,0.00,,,0.00,WeatherCatV1.10B1784,2013-02-09 21:08:00,
2013-02-09 13:13:00,50.8,32.8,30.00,SE,138,0.0,1.0,50,0.00,,,0.00,WeatherCatV1.10B1784,2013-02-09 21:13:00,
2013-02-09 13:18:00,50.8,33.8,30.00,East,88,0.0,2.0,52,0.00,,,0.00,WeatherCatV1.10B1784,2013-02-09 21:18:00,
2013-02-09 13:23:00,50.6,33.1,30.00,SE,125,1.0,1.0,51,0.00,,,0.00,WeatherCatV1.10B1784,2013-02-09 21:23:00,
2013-02-09 13:28:00,50.3,33.4,30.00,SE,144,0.0,2.0,52,0.00,,,0.00,WeatherCatV1.10B1784,2013-02-09 21:28:00,
2013-02-09 13:33:00,50.3,33.8,30.00,ESE,123,0.0,0.0,53,0.00,,,0.00,WeatherCatV1.10B1784,2013-02-09 21:33:00,
2013-02-09 13:38:00,50.4,34.4,30.00,SSE,161,1.0,2.0,54,0.00,,,0.00,WeatherCatV1.10B1784,2013-02-09 21:38:00,
2013-02-09 13:43:00,50.6,35.5,30.00,SE,135,0.0,2.0,56,0.00,,,0.00,WeatherCatV1.10B1784,2013-02-09 21:43:00,
2013-02-09 13:48:00,51.0,34.5,29.99,SE,135,1.0,2.0,53,0.00,,,0.00,WeatherCatV1.10B1784,2013-02-09 21:48:00,
2013-02-09 13:53:00,50.9,33.9,29.99,SSE,154,0.0,0.0,52,0.00,,,0.00,WeatherCatV1.10B1784,2013-02-09 21:53:00,
2013-02-09 13:58:00,50.6,33.1,29.99,East,79,0.0,1.0,51,0.00,,,0.00,WeatherCatV1.10B1784,2013-02-09 21:58:00,
2013-02-09 14:03:00,50.4,33.0,29.99,SSE,168,0.0,1.0,51,0.00,,,0.00,WeatherCatV1.10B1784,2013-02-09 22:03:00,
2013-02-09 14:08:00,50.1,33.6,29.99,SSE,154,0.0,0.0,53,0.00,,,0.00,WeatherCatV1.10B1784,2013-02-09 22:08:00,
2013-02-09 14:13:00,49.9,33.5,29.99,NNW,345,0.0,0.0,53,0.00,,,0.00,WeatherCatV1.10B1784,2013-02-09 22:13:00,
2013-02-09 14:18:00,50.0,33.1,29.99,ESE,118,0.0,2.0,52,0.00,,,0.00,WeatherCatV1.10B1784,2013-02-09 22:18:00,
2013-02-09 14:23:00,50.1,33.6,29.99,NNW,348,0.0,2.0,53,0.00,,,0.00,WeatherCatV1.10B1784,2013-02-09 22:23:00,
2013-02-09 14:28:00,50.3,34.3,29.99,SE,141,0.0,2.0,54,0.00,,,0.00,WeatherCatV1.10B1784,2013-02-09 22:28:00,
2013-02-09 14:33:00,50.4,33.9,29.99,WNW,291,0.0,1.0,53,0.00,,,0.00,WeatherCatV1.10B1784,2013-02-09 22:33:00,
2013-02-09 14:38:00,50.3,33.8,29.99,SE,146,0.0,1.0,53,0.00,,,0.00,WeatherCatV1.10B1784,2013-02-09 22:38:00,
2013-02-09 14:43:00,50.3,33.8,29.99,ESE,122,0.0,1.0,53,0.00,,,0.00,WeatherCatV1.10B1784,2013-02-09 22:43:00,
2013-02-09 14:48:00,50.0,34.5,29.99,SE,130,0.0,0.0,55,0.00,,,0.00,WeatherCatV1.10B1784,2013-02-09 22:48:00,
2013-02-09 14:53:00,50.0,34.9,29.99,ESE,115,0.0,0.0,56,0.00,,,0.00,WeatherCatV1.10B1784,2013-02-09 22:53:00,
2013-02-09 14:58:00,49.7,35.1,29.99,SE,138,1.0,2.0,57,0.00,,,0.00,WeatherCatV1.10B1784,2013-02-09 22:58:00,
2013-02-09 15:03:00,49.6,35.4,29.99,SE,143,0.0,1.0,58,0.00,,,0.00,WeatherCatV1.10B1784,2013-02-09 23:03:00,
2013-02-09 15:08:00,49.6,36.7,29.99,SE,127,0.0,0.0,61,0.00,,,0.00,WeatherCatV1.10B1784,2013-02-09 23:08:00,
2013-02-09 15:13:00,49.6,36.7,29.99,SSE,149,1.0,1.0,61,0.00,,,0.00,WeatherCatV1.10B1784,2013-02-09 23:13:00,
2013-02-09 15:17:00,49.5,35.8,29.99,SE,144,0.0,2.0,59,0.00,,,0.00,WeatherCatV1.10B1784,2013-02-09 23:17:00,
2013-02-09 15:22:00,49.4,36.1,29.99,SE,139,0.0,1.0,60,0.00,,,0.00,WeatherCatV1.10B1784,2013-02-09 23:22:00,
2013-02-09 15:27:00,49.2,35.9,29.99,ESE,117,0.0,1.0,60,0.00,,,0.00,WeatherCatV1.10B1784,2013-02-09 23:27:00,
2013-02-09 15:32:00,49.1,35.8,29.99,SE,128,0.0,0.0,60,0.00,,,0.00,WeatherCatV1.10B1784,2013-02-09 23:32:00,
2013-02-09 15:37:00,48.8,35.5,29.99,SE,144,0.0,1.0,60,0.00,,,0.00,WeatherCatV1.10B1784,2013-02-09 23:37:00,
2013-02-09 15:42:00,48.7,35.4,29.99,ESE,121,0.0,1.0,60,0.00,,,0.00,WeatherCatV1.10B1784,2013-02-09 23:42:00,
2013-02-09 15:47:00,48.5,35.7,29.99,ESE,104,0.0,2.0,61,0.00,,,0.00,WeatherCatV1.10B1784,2013-02-09 23:47:00,
2013-02-09 15:52:00,48.2,35.4,29.99,SSE,150,2.0,2.0,61,0.00,,,0.00,WeatherCatV1.10B1784,2013-02-09 23:52:00,
2013-02-09 15:57:00,48.0,35.6,29.99,ESE,114,0.0,0.0,62,0.00,,,0.00,WeatherCatV1.10B1784,2013-02-09 23:57:00,
2013-02-09 16:02:00,47.9,35.9,29.99,ESE,123,0.0,1.0,63,0.00,,,0.00,WeatherCatV1.10B1784,2013-02-10 00:02:00,
2013-02-09 16:07:00,47.8,35.8,29.99,ESE,121,0.0,0.0,63,0.00,,,0.00,WeatherCatV1.10B1784,2013-02-10 00:07:00,
2013-02-09 16:12:00,47.5,35.5,29.99,SE,142,0.0,1.0,63,0.00,,,0.00,WeatherCatV1.10B1784,2013-02-10 00:12:00,
2013-02-09 16:17:00,47.3,35.7,30.00,SE,140,0.0,1.0,64,0.00,,,0.00,WeatherCatV1.10B1784,2013-02-10 00:17:00,
2013-02-09 16:22:00,47.2,35.7,30.00,SE,135,0.0,1.0,64,0.00,,,0.00,WeatherCatV1.10B1784,2013-02-10 00:22:00,
2013-02-09 16:27:00,47.0,35.5,30.00,SE,127,0.0,1.0,64,0.00,,,0.00,WeatherCatV1.10B1784,2013-02-10 00:27:00,
2013-02-09 16:32:00,46.8,35.3,30.00,ESE,122,0.0,1.0,64,0.00,,,0.00,WeatherCatV1.10B1784,2013-02-10 00:32:00,
2013-02-09 16:37:00,46.5,35.4,30.00,SE,138,0.0,1.0,65,0.00,,,0.00,WeatherCatV1.10B1784,2013-02-10 00:37:00,
2013-02-09 16:42:00,46.3,35.2,30.00,SE,142,0.0,0.0,65,0.00,,,0.00,WeatherCatV1.10B1784,2013-02-10 00:42:00,
2013-02-09 16:47:00,46.1,35.0,30.00,SE,135,0.0,0.0,65,0.00,,,0.00,WeatherCatV1.10B1784,2013-02-10 00:47:00,
2013-02-09 16:52:00,46.0,35.3,30.00,SE,135,0.0,0.0,66,0.00,,,0.00,WeatherCatV1.10B1784,2013-02-10 00:52:00,
2013-02-09 16:57:00,45.8,35.5,30.00,SE,135,0.0,0.0,67,0.00,,,0.00,WeatherCatV1.10B1784,2013-02-10 00:57:00,
2013-02-09 17:02:00,45.7,35.0,30.00,SE,135,0.0,0.0,66,0.00,,,0.00,WeatherCatV1.10B1784,2013-02-10 01:02:00,
2013-02-09 17:07:00,45.5,35.2,30.00,SE,135,0.0,1.0,67,0.00,,,0.00,WeatherCatV1.10B1784,2013-02-10 01:07:00,
2013-02-09 17:12:00,45.2,34.9,30.00,SE,135,0.0,0.0,67,0.00,,,0.00,WeatherCatV1.10B1784,2013-02-10 01:12:00,
2013-02-09 17:17:00,45.1,35.2,30.01,SE,135,0.0,0.0,68,0.00,,,0.00,WeatherCatV1.10B1784,2013-02-10 01:17:00,
2013-02-09 17:22:00,44.9,34.6,30.01,SE,135,0.0,0.0,67,0.00,,,0.00,WeatherCatV1.10B1784,2013-02-10 01:22:00,
2013-02-09 17:27:00,44.7,34.8,30.01,SE,135,0.0,0.0,68,0.00,,,0.00,WeatherCatV1.10B1784,2013-02-10 01:27:00,
2013-02-09 17:32:00,44.6,35.1,30.01,SE,135,0.0,0.0,69,0.00,,,0.00,WeatherCatV1.10B1784,2013-02-10 01:32:00,
2013-02-09 17:37:00,44.5,35.0,30.01,SE,135,0.0,0.0,69,0.00,,,0.00,WeatherCatV1.10B1784,2013-02-10 01:37:00,
2013-02-09 17:42:00,44.2,35.0,30.01,SE,135,0.0,0.0,70,0.00,,,0.00,WeatherCatV1.10B1784,2013-02-10 01:42:00,
2013-02-09 17:47:00,43.7,34.6,30.01,SE,125,0.0,1.0,70,0.00,,,0.00,WeatherCatV1.10B1784,2013-02-10 01:47:00,
2013-02-09 17:52:00,43.1,34.0,30.01,NNW,331,0.0,2.0,70,0.00,,,0.00,WeatherCatV1.10B1784,2013-02-10 01:52:00,
2013-02-09 17:57:00,42.6,33.9,30.01,NNW,333,1.0,3.0,71,0.00,,,0.00,WeatherCatV1.10B1784,2013-02-10 01:57:00,
2013-02-09 18:02:00,42.4,33.7,30.01,NNW,331,1.0,3.0,71,0.00,,,0.00,WeatherCatV1.10B1784,2013-02-10 02:02:00,
2013-02-09 18:07:00,42.3,32.9,30.01,NNW,327,1.0,3.0,69,0.00,,,0.00,WeatherCatV1.10B1784,2013-02-10 02:07:00,
2013-02-09 18:12:00,42.3,32.9,30.01,NNW,332,1.0,2.0,69,0.00,,,0.00,WeatherCatV1.10B1784,2013-02-10 02:12:00,
2013-02-09 18:17:00,42.1,32.7,30.00,NNW,330,1.0,1.0,69,0.00,,,0.00,WeatherCatV1.10B1784,2013-02-10 02:17:00,
2013-02-09 18:22:00,41.8,32.7,30.00,NNW,342,0.0,1.0,70,0.00,,,0.00,WeatherCatV1.10B1784,2013-02-10 02:22:00,
2013-02-09 18:27:00,41.6,32.6,30.00,NNW,331,0.0,0.0,70,0.00,,,0.00,WeatherCatV1.10B1784,2013-02-10 02:27:00,
2013-02-09 18:32:00,41.5,32.1,30.00,NNW,330,0.0,0.0,69,0.00,,,0.00,WeatherCatV1.10B1784,2013-02-10 02:32:00,
2013-02-09 18:37:00,41.5,32.1,30.00,NNW,330,0.0,0.0,69,0.00,,,0.00,WeatherCatV1.10B1784,2013-02-10 02:37:00,
2013-02-09 18:42:00,41.4,32.0,30.00,NNW,330,0.0,0.0,69,0.00,,,0.00,WeatherCatV1.10B1784,2013-02-10 02:42:00,
2013-02-09 18:47:00,41.4,31.6,30.00,NNW,331,0.0,0.0,68,0.00,,,0.00,WeatherCatV1.10B1784,2013-02-10 02:47:00,
2013-02-09 18:52:00,41.4,31.3,30.00,NNW,330,0.0,0.0,67,0.00,,,0.00,WeatherCatV1.10B1784,2013-02-10 02:52:00,
2013-02-09 18:57:00,41.4,30.9,30.00,NNW,327,0.0,0.0,66,0.00,,,0.00,WeatherCatV1.10B1784,2013-02-10 02:57:00,
2013-02-09 19:02:00,41.3,30.4,30.01,NNW,327,0.0,0.0,65,0.00,,,0.00,WeatherCatV1.10B1784,2013-02-10 03:02:00,
2013-02-09 19:07:00,41.3,31.5,30.01,NNW,327,0.0,0.0,68,0.00,,,0.00,WeatherCatV1.10B1784,2013-02-10 03:07:00,
2013-02-09 19:12:00,41.3,31.9,30.01,NNW,327,0.0,0.0,69,0.00,,,0.00,WeatherCatV1.10B1784,2013-02-10 03:12:00,
2013-02-09 19:17:00,41.2,32.2,30.02,NNW,327,0.0,0.0,70,0.00,,,0.00,WeatherCatV1.10B1784,2013-02-10 03:17:00,
2013-02-09 19:22:00,41.1,32.1,30.02,NNW,327,0.0,0.0,70,0.00,,,0.00,WeatherCatV1.10B1784,2013-02-10 03:22:00,
2013-02-09 19:27:00,41.1,32.4,30.02,NNW,327,0.0,0.0,71,0.00,,,0.00,WeatherCatV1.10B1784,2013-02-10 03:27:00,
2013-02-09 19:32:00,41.0,32.3,30.02,NNW,327,0.0,0.0,71,0.00,,,0.00,WeatherCatV1.10B1784,2013-02-10 03:32:00,
2013-02-09 19:37:00,41.0,32.3,30.02,NNW,327,0.0,0.0,71,0.00,,,0.00,WeatherCatV1.10B1784,2013-02-10 03:37:00,
2013-02-09 19:42:00,41.0,32.3,30.02,NNW,327,0.0,0.0,71,0.00,,,0.00,WeatherCatV1.10B1784,2013-02-10 03:42:00,
2013-02-09 19:47:00,40.9,31.9,30.02,NNW,327,0.0,0.0,70,0.00,,,0.00,WeatherCatV1.10B1784,2013-02-10 03:47:00,
2013-02-09 19:52:00,40.8,31.4,30.02,NNW,327,0.0,0.0,69,0.00,,,0.00,WeatherCatV1.10B1784,2013-02-10 03:52:00,
2013-02-09 19:57:00,40.7,31.7,30.02,NNW,327,0.0,0.0,70,0.00,,,0.00,WeatherCatV1.10B1784,2013-02-10 03:57:00,
2013-02-09 20:02:00,40.5,31.5,30.02,NNW,329,1.0,2.0,70,0.00,,,0.00,WeatherCatV1.10B1784,2013-02-10 04:02:00,
2013-02-09 20:07:00,40.2,30.9,30.02,NNW,332,0.0,1.0,69,0.00,,,0.00,WeatherCatV1.10B1784,2013-02-10 04:07:00,
2013-02-09 20:12:00,40.1,30.4,30.02,NNW,333,0.0,1.0,68,0.00,,,0.00,WeatherCatV1.10B1784,2013-02-10 04:12:00,
2013-02-09 20:17:00,40.1,30.0,30.03,NW,326,1.0,1.0,67,0.00,,,0.00,WeatherCatV1.10B1784,2013-02-10 04:17:00,
2013-02-09 20:22:00,40.1,29.7,30.03,NNW,334,0.0,2.0,66,0.00,,,0.00,WeatherCatV1.10B1784,2013-02-10 04:22:00,
2013-02-09 20:27:00,40.2,29.4,30.03,NNW,332,0.0,1.0,65,0.00,,,0.00,WeatherCatV1.10B1784,2013-02-10 04:27:00,
2013-02-09 20:32:00,40.2,29.4,30.04,NNW,332,0.0,0.0,65,0.00,,,0.00,WeatherCatV1.10B1784,2013-02-10 04:32:00,
2013-02-09 20:37:00,40.3,27.9,30.04,NNW,332,0.0,0.0,61,0.00,,,0.00,WeatherCatV1.10B1784,2013-02-10 04:37:00,
2013-02-09 20:42:00,40.3,27.9,30.04,NNW,332,0.0,0.0,61,0.00,,,0.00,WeatherCatV1.10B1784,2013-02-10 04:42:00,
2013-02-09 20:47:00,40.3,27.9,30.04,NNW,332,0.0,0.0,61,0.00,,,0.00,WeatherCatV1.10B1784,2013-02-10 04:47:00,
2013-02-09 20:52:00,40.3,28.3,30.04,NNW,332,0.0,0.0,62,0.00,,,0.00,WeatherCatV1.10B1784,2013-02-10 04:52:00,
2013-02-09 20:57:00,40.2,27.8,30.04,NNW,332,0.0,0.0,61,0.00,,,0.00,WeatherCatV1.10B1784,2013-02-10 04:57:00,
2013-02-09 21:00:00,40.2,27.8,30.04,NNW,332,0.0,0.0,61,0.00,,,0.00,WeatherCatV1.10B1784,2013-02-10 05:00:00,
2013-02-09 21:05:00,40.1,27.7,30.04,NNW,332,0.0,0.0,61,0.00,,,0.00,WeatherCatV1.10B1784,2013-02-10 05:05:00,
2013-02-09 21:10:00,40.1,27.3,30.04,NNW,332,0.0,0.0,60,0.00,,,0.00,WeatherCatV1.10B1784,2013-02-10 05:10:00,
2013-02-09 21:15:00,40.0,27.3,30.04,NNW,332,0.0,0.0,60,0.00,,,0.00,WeatherCatV1.10B1784,2013-02-10 05:15:00,
2013-02-09 21:20:00,40.0,27.7,30.04,NNW,332,0.0,0.0,61,0.00,,,0.00,WeatherCatV1.10B1784,2013-02-10 05:20:00,
2013-02-09 21:25:00,40.0,27.7,30.04,NNW,332,0.0,0.0,61,0.00,,,0.00,WeatherCatV1.10B1784,2013-02-10 05:25:00,
2013-02-09 21:30:00,39.8,27.9,30.05,NNW,331,0.0,0.0,62,0.00,,,0.00,WeatherCatV1.10B1784,2013-02-10 05:30:00,
2013-02-09 21:35:00,39.7,28.2,30.05,NNW,329,2.0,3.0,63,0.00,,,0.00,WeatherCatV1.10B1784,2013-02-10 05:35:00,
2013-02-09 21:40:00,39.7,28.2,30.05,NNW,333,3.0,3.0,63,0.00,,,0.00,WeatherCatV1.10B1784,2013-02-10 05:40:00,
2013-02-09 21:45:00,39.8,27.9,30.05,NNW,335,3.0,3.0,62,0.00,,,0.00,WeatherCatV1.10B1784,2013-02-10 05:45:00,
2013-02-09 21:50:00,39.8,28.2,30.05,NNW,333,0.0,1.0,63,0.00,,,0.00,WeatherCatV1.10B1784,2013-02-10 05:50:00,
2013-02-09 21:55:00,39.8,27.9,30.05,NNW,334,2.0,3.0,62,0.00,,,0.00,WeatherCatV1.10B1784,2013-02-10 05:55:00,
2013-02-09 22:00:00,39.8,27.5,30.05,NNW,347,1.0,3.0,61,0.00,,,0.00,WeatherCatV1.10B1784,2013-02-10 06:00:00,
2013-02-09 22:05:00,40.0,27.3,30.05,NNW,348,1.0,2.0,60,0.00,,,0.00,WeatherCatV1.10B1784,2013-02-10 06:05:00,
2013-02-09 22:10:00,40.0,27.3,30.05,NNW,336,2.0,3.0,60,0.00,,,0.00,WeatherCatV1.10B1784,2013-02-10 06:10:00,
2013-02-09 22:15:00,40.1,27.3,30.05,NNW,335,2.0,2.0,60,0.00,,,0.00,WeatherCatV1.10B1784,2013-02-10 06:15:00,
2013-02-09 22:20:00,40.1,27.3,30.05,NNW,329,0.0,2.0,60,0.00,,,0.00,WeatherCatV1.10B1784,2013-02-10 06:20:00,
2013-02-09 22:25:00,40.0,28.0,30.05,NNW,329,0.0,0.0,62,0.00,,,0.00,WeatherCatV1.10B1784,2013-02-10 06:25:00,
2013-02-09 22:30:00,39.9,27.2,30.04,NNW,329,0.0,0.0,60,0.00,,,0.00,WeatherCatV1.10B1784,2013-02-10 06:30:00,
2013-02-09 22:35:00,39.7,27.8,30.04,NNW,329,0.0,0.0,62,0.00,,,0.00,WeatherCatV1.10B1784,2013-02-10 06:35:00,
2013-02-09 22:40:00,39.6,28.1,30.04,NNW,329,0.0,0.0,63,0.00,,,0.00,WeatherCatV1.10B1784,2013-02-10 06:40:00,
2013-02-09 22:45:00,39.5,27.6,30.04,NNW,329,0.0,0.0,62,0.00,,,0.00,WeatherCatV1.10B1784,2013-02-10 06:45:00,
2013-02-09 22:50:00,39.5,27.2,30.04,NNW,329,0.0,0.0,61,0.00,,,0.00,WeatherCatV1.10B1784,2013-02-10 06:50:00,
2013-02-09 22:55:00,39.5,27.6,30.04,NNW,329,0.0,0.0,62,0.00,,,0.00,WeatherCatV1.10B1784,2013-02-10 06:55:00,
2013-02-09 23:00:00,39.5,27.2,30.04,NNW,329,0.0,0.0,61,0.00,,,0.00,WeatherCatV1.10B1784,2013-02-10 07:00:00,
2013-02-09 23:05:00,39.6,26.9,30.04,NNW,329,0.0,0.0,60,0.00,,,0.00,WeatherCatV1.10B1784,2013-02-10 07:05:00,
2013-02-09 23:10:00,39.6,27.3,30.04,NNW,329,0.0,0.0,61,0.00,,,0.00,WeatherCatV1.10B1784,2013-02-10 07:10:00,
2013-02-09 23:15:00,39.7,27.0,30.04,NNW,329,0.0,0.0,60,0.00,,,0.00,WeatherCatV1.10B1784,2013-02-10 07:15:00,
2013-02-09 23:20:00,39.6,27.3,30.04,NNW,329,0.0,0.0,61,0.00,,,0.00,WeatherCatV1.10B1784,2013-02-10 07:20:00,
2013-02-09 23:25:00,39.5,27.2,30.04,NNW,329,0.0,0.0,61,0.00,,,0.00,WeatherCatV1.10B1784,2013-02-10 07:25:00,
2013-02-09 23:30:00,39.5,26.8,30.04,NNW,329,0.0,0.0,60,0.00,,,0.00,WeatherCatV1.10B1784,2013-02-10 07:30:00,
2013-02-09 23:35:00,39.4,27.1,30.04,NNW,329,0.0,0.0,61,0.00,,,0.00,WeatherCatV1.10B1784,2013-02-10 07:35:00,
2013-02-09 23:40:00,39.4,27.1,30.04,NNW,329,0.0,0.0,61,0.00,,,0.00,WeatherCatV1.10B1784,2013-02-10 07:40:00,
2013-02-09 23:45:00,39.4,27.5,30.04,NNW,329,0.0,0.0,62,0.00,,,0.00,WeatherCatV1.10B1784,2013-02-10 07:45:00,
2013-02-09 23:50:00,39.3,27.0,30.04,NNW,329,0.0,0.0,61,0.00,,,0.00,WeatherCatV1.10B1784,2013-02-10 07:50:00,
2013-02-09 23:55:00,39.3,27.0,30.04,NNW,329,0.0,0.0,61,0.00,,,0.00,WeatherCatV1.10B1784,2013-02-10 07:55:00,